Time;durP1;ratioP1;P1;durP2;ratioP2;P2;SDS_P1;SDS_P2;PMS_P1;PMS_P2;Temp;Humidity;BMP_temperature;BMP_pressure;BME280_temperature;BME280_humidity;BME280_pressure;Samples;Min_cycle;Max_cycle;Signal;HPM_P1;HPM_P2
2022/01/08 00:02:11;;;;;;;0.30;0.30;;;1.80;99.90;;;;;;5031993;28;20512;-74
2022/01/08 00:04:37;;;;;;;0.30;0.30;;;2.00;99.90;;;;;;5030768;28;20072;-74
2022/01/08 00:07:03;;;;;;;0.30;0.30;;;2.10;99.90;;;;;;5031779;28;20018;-74
2022/01/08 00:09:28;;;;;;;0.25;0.25;;;2.10;99.90;;;;;;5031916;28;20033;-74
2022/01/08 00:11:54;;;;;;;0.30;0.30;;;2.10;99.90;;;;;;5032006;28;20029;-74
2022/01/08 00:14:22;;;;;;;0.30;0.30;;;2.00;99.90;;;;;;5030770;28;20133;-75
2022/01/08 00:16:48;;;;;;;0.30;0.30;;;1.80;99.90;;;;;;5030573;28;20029;-75
2022/01/08 00:19:14;;;;;;;0.30;0.30;;;1.60;99.90;;;;;;5030607;28;20030;-74
2022/01/08 00:21:40;;;;;;;0.30;0.30;;;1.50;99.90;;;;;;5032067;28;20036;-75
2022/01/08 00:24:06;;;;;;;0.30;0.30;;;1.50;99.90;;;;;;5035855;28;20104;-74
2022/01/08 00:26:32;;;;;;;0.40;0.40;;;1.50;99.90;;;;;;5034460;28;20388;-74
2022/01/08 00:28:59;;;;;;;0.30;0.30;;;1.50;99.90;;;;;;5035751;28;20436;-74
2022/01/08 00:31:25;;;;;;;0.30;0.30;;;1.50;99.90;;;;;;5035827;28;20021;-74
2022/01/08 00:33:52;;;;;;;0.30;0.30;;;1.60;99.90;;;;;;5035688;28;20033;-74
2022/01/08 00:36:18;;;;;;;0.35;0.35;;;1.50;99.90;;;;;;5034247;28;20080;-74
2022/01/08 00:38:43;;;;;;;0.40;0.40;;;1.30;99.90;;;;;;5034429;28;20370;-74
2022/01/08 00:41:09;;;;;;;0.30;0.30;;;1.20;99.90;;;;;;5034316;28;20104;-74
2022/01/08 00:43:36;;;;;;;0.40;0.40;;;0.90;99.90;;;;;;5035554;28;20025;-74
2022/01/08 00:46:02;;;;;;;0.30;0.30;;;0.60;99.90;;;;;;5035259;28;20026;-75
2022/01/08 00:48:28;;;;;;;1.23;1.17;;;0.40;99.90;;;;;;5017696;28;20068;-74
2022/01/08 00:50:54;;;;;;;0.30;0.30;;;0.30;99.90;;;;;;5034003;28;20049;-74
2022/01/08 00:53:20;;;;;;;0.50;0.50;;;0.30;99.90;;;;;;5035429;28;20029;-74
2022/01/08 00:55:46;;;;;;;0.38;0.38;;;0.40;99.90;;;;;;5034984;28;20064;-74
2022/01/08 00:58:12;;;;;;;0.43;0.43;;;0.50;99.90;;;;;;5035275;28;20060;-74
2022/01/08 01:00:41;;;;;;;0.70;0.70;;;0.40;99.90;;;;;;5034887;28;20461;-74
2022/01/08 01:03:07;;;;;;;0.40;0.40;;;0.30;99.90;;;;;;5035302;28;20574;-74
2022/01/08 01:05:33;;;;;;;0.52;0.52;;;0.30;99.90;;;;;;5034928;28;20030;-74
2022/01/08 01:07:59;;;;;;;0.50;0.50;;;0.20;99.90;;;;;;5033695;28;20018;-74
2022/01/08 01:10:25;;;;;;;0.40;0.40;;;0.10;99.90;;;;;;5035111;28;20155;-74
2022/01/08 01:12:51;;;;;;;0.40;0.40;;;-0.10;99.90;;;;;;5034934;28;20507;-74
2022/01/08 01:15:18;;;;;;;0.40;0.40;;;-0.10;99.90;;;;;;5034994;28;20033;-74
2022/01/08 01:17:45;;;;;;;0.35;0.35;;;-0.40;99.90;;;;;;5035009;28;20092;-74
2022/01/08 01:20:13;;;;;;;0.40;0.40;;;-0.40;99.90;;;;;;5034832;28;20419;-74
2022/01/08 01:25:10;;;;;;;0.40;0.40;;;-0.40;99.90;;;;;;5034779;28;20030;-74
2022/01/08 01:30:12;;;;;;;0.50;0.50;;;-0.30;99.90;;;;;;5034756;28;20456;-74
2022/01/08 01:49:05;;;;;;;1.20;1.10;;;0.00;99.90;;;;;;5034414;28;20021;-75
2022/01/08 01:51:31;;;;;;;0.40;0.40;;;-0.30;99.90;;;;;;5034185;28;20056;-74
2022/01/08 01:53:57;;;;;;;0.40;0.40;;;-0.60;99.90;;;;;;5032949;28;20102;-74
2022/01/08 01:56:23;;;;;;;0.40;0.40;;;-0.70;99.90;;;;;;5034113;28;20048;-74
2022/01/08 01:58:50;;;;;;;0.57;0.57;;;-0.90;99.90;;;;;;5034005;28;20022;-74
2022/01/08 02:01:16;;;;;;;0.50;0.50;;;-1.00;99.90;;;;;;5032692;28;20053;-74
2022/01/08 02:03:43;;;;;;;0.50;0.50;;;-0.90;99.90;;;;;;5016373;28;20089;-74
2022/01/08 02:06:09;;;;;;;0.50;0.50;;;-1.00;99.90;;;;;;5033937;28;20037;-74
2022/01/08 02:08:37;;;;;;;0.57;0.57;;;-1.30;99.90;;;;;;5033972;28;20569;-74
2022/01/08 02:11:04;;;;;;;0.40;0.40;;;-1.50;99.90;;;;;;5032532;28;20033;-74
2022/01/08 02:13:31;;;;;;;0.40;0.40;;;-1.50;99.90;;;;;;5032688;28;20029;-74
2022/01/08 02:16:00;;;;;;;0.52;0.52;;;-1.50;99.90;;;;;;5032503;28;20029;-74
2022/01/08 02:18:26;;;;;;;0.40;0.40;;;-1.50;99.90;;;;;;5032594;28;20040;-74
2022/01/08 02:20:57;;;;;;;0.50;0.50;;;-1.50;99.90;;;;;;5032337;28;20036;-74
2022/01/08 02:23:22;;;;;;;1.90;0.85;;;-1.30;99.90;;;;;;5033670;28;20584;-74
2022/01/08 02:25:49;;;;;;;0.60;0.60;;;-1.20;99.90;;;;;;5033494;28;20021;-74
2022/01/08 02:28:15;;;;;;;0.45;0.45;;;-1.40;99.90;;;;;;5033563;28;20417;-74
2022/01/08 02:30:40;;;;;;;0.40;0.40;;;-1.30;99.90;;;;;;5032117;28;20032;-74
2022/01/08 02:33:06;;;;;;;0.40;0.40;;;-1.10;99.90;;;;;;5033521;28;20523;-74
2022/01/08 02:35:33;;;;;;;0.50;0.50;;;-1.20;99.90;;;;;;5032013;28;20025;-74
2022/01/08 02:37:59;;;;;;;0.55;0.55;;;-1.20;99.90;;;;;;5031996;28;20025;-74
2022/01/08 02:40:25;;;;;;;0.77;0.77;;;-1.30;99.90;;;;;;5033435;28;20116;-75
2022/01/08 02:42:54;;;;;;;0.60;0.60;;;-1.50;99.90;;;;;;5033378;28;20092;-74
2022/01/08 02:45:21;;;;;;;0.60;0.60;;;-2.00;99.90;;;;;;5031289;28;20018;-73
2022/01/08 02:47:48;;;;;;;4.55;4.22;;;-2.10;99.90;;;;;;5033000;28;20067;-74
2022/01/08 02:50:15;;;;;;;0.73;0.73;;;-1.90;99.90;;;;;;5033150;28;20485;-74
2022/01/08 02:52:42;;;;;;;0.43;0.43;;;-1.70;99.90;;;;;;5033160;28;20033;-74
2022/01/08 02:55:08;;;;;;;0.52;0.52;;;-1.50;99.90;;;;;;5015405;28;20039;-74
2022/01/08 02:57:34;;;;;;;0.50;0.50;;;-1.40;99.90;;;;;;5113907;23;20370;-76
2022/01/08 03:00:00;;;;;;;0.55;0.55;;;-1.40;99.90;;;;;;5052718;28;20037;-76
2022/01/08 03:02:26;;;;;;;0.60;0.60;;;-1.30;99.90;;;;;;5051533;28;20418;-76
2022/01/08 03:04:53;;;;;;;3.33;1.65;;;-1.30;99.90;;;;;;5052929;28;20025;-76
2022/01/08 03:07:19;;;;;;;0.50;0.50;;;-1.60;99.90;;;;;;5051274;28;20024;-73
2022/01/08 03:09:46;;;;;;;0.50;0.50;;;-1.50;99.90;;;;;;5051410;28;20032;-76
2022/01/08 03:12:13;;;;;;;0.40;0.40;;;-1.50;99.90;;;;;;5052671;28;20055;-76
2022/01/08 03:14:38;;;;;;;0.60;0.60;;;-1.50;99.90;;;;;;5052832;28;20196;-75
2022/01/08 03:17:04;;;;;;;0.50;0.50;;;-1.50;99.90;;;;;;5052448;28;20532;-75
2022/01/08 03:19:30;;;;;;;0.40;0.40;;;-1.50;99.90;;;;;;5052524;28;20079;-75
2022/01/08 03:21:57;;;;;;;0.40;0.40;;;-1.60;99.90;;;;;;5052451;28;20025;-75
2022/01/08 03:24:28;;;;;;;0.60;0.60;;;-1.70;99.90;;;;;;5052635;28;20052;-75
2022/01/08 03:26:54;;;;;;;0.60;0.60;;;-1.70;99.90;;;;;;5051949;28;20025;-75
2022/01/08 03:29:20;;;;;;;0.50;0.50;;;-1.90;99.90;;;;;;5052396;28;20523;-75
2022/01/08 03:31:46;;;;;;;0.50;0.50;;;-2.10;99.90;;;;;;5052880;28;20053;-75
2022/01/08 03:34:12;;;;;;;0.50;0.50;;;-1.90;99.90;;;;;;5053003;28;20061;-75
2022/01/08 03:36:38;;;;;;;0.40;0.40;;;-1.60;99.90;;;;;;5051782;28;20051;-75
2022/01/08 03:39:04;;;;;;;0.40;0.40;;;-1.50;99.90;;;;;;5051409;28;20033;-75
2022/01/08 03:41:30;;;;;;;0.50;0.50;;;-1.40;99.90;;;;;;5051252;28;20025;-75
2022/01/08 03:43:55;;;;;;;0.50;0.50;;;-1.30;99.90;;;;;;5051679;28;20372;-75
2022/01/08 03:46:23;;;;;;;0.40;0.40;;;-1.30;99.90;;;;;;5051734;28;20075;-75
2022/01/08 03:51:27;;;;;;;0.40;0.40;;;-1.10;99.90;;;;;;5053002;28;20025;-75
2022/01/08 03:53:53;;;;;;;0.40;0.40;;;-1.00;99.90;;;;;;5051723;28;20029;-75
2022/01/08 03:56:18;;;;;;;0.40;0.40;;;-1.00;99.90;;;;;;5052368;28;20108;-75
2022/01/08 03:58:44;;;;;;;0.40;0.40;;;-0.90;99.90;;;;;;5053202;28;20504;-75
2022/01/08 04:01:10;;;;;;;0.30;0.30;;;-0.80;99.90;;;;;;5051221;28;20480;-76
2022/01/08 04:03:36;;;;;;;0.50;0.50;;;-0.80;99.90;;;;;;5052683;28;20025;-75
2022/01/08 04:06:02;;;;;;;0.40;0.40;;;-0.80;99.90;;;;;;5052821;28;20532;-75
2022/01/08 04:08:27;;;;;;;0.38;0.38;;;-0.90;99.90;;;;;;5052608;28;20021;-75
2022/01/08 04:10:53;;;;;;;0.50;0.50;;;-1.00;99.90;;;;;;5052824;28;20036;-75
2022/01/08 04:13:24;;;;;;;0.50;0.50;;;-1.10;99.90;;;;;;5052447;28;20029;-75
2022/01/08 04:15:53;;;;;;;0.30;0.30;;;-1.20;99.90;;;;;;5053165;28;20041;-75
2022/01/08 04:18:20;;;;;;;0.40;0.40;;;-1.30;99.90;;;;;;5035240;28;20507;-75
2022/01/08 04:23:31;;;;;;;0.40;0.40;;;-1.20;99.90;;;;;;5052665;28;20025;-75
2022/01/08 04:25:56;;;;;;;0.30;0.30;;;-1.00;99.90;;;;;;5052606;28;20051;-75
2022/01/08 04:28:22;;;;;;;0.40;0.40;;;-1.00;99.90;;;;;;5052654;28;20572;-75
2022/01/08 04:30:48;;;;;;;1.05;0.70;;;-1.00;99.90;;;;;;5051294;28;20108;-75
2022/01/08 04:33:14;;;;;;;0.50;0.50;;;-1.10;99.90;;;;;;5052229;28;20032;-75
2022/01/08 04:35:40;;;;;;;0.50;0.50;;;-1.20;99.90;;;;;;5050523;28;20425;-75
2022/01/08 04:38:06;;;;;;;0.40;0.40;;;-1.40;99.90;;;;;;5051892;28;20022;-76
2022/01/08 04:40:33;;;;;;;0.70;0.68;;;-1.40;99.90;;;;;;5051494;28;20032;-75
2022/01/08 04:43:02;;;;;;;0.40;0.40;;;-1.20;99.90;;;;;;5051612;28;20080;-76
2022/01/08 04:45:29;;;;;;;0.40;0.40;;;-1.10;99.90;;;;;;5050455;28;20546;-76
2022/01/08 04:48:00;;;;;;;0.40;0.40;;;-1.10;99.90;;;;;;5051194;28;20162;-75
2022/01/08 04:50:27;;;;;;;0.40;0.40;;;-1.10;99.90;;;;;;5052395;28;20519;-76
2022/01/08 04:52:55;;;;;;;0.50;0.50;;;-1.10;99.90;;;;;;5051972;28;20025;-75
2022/01/08 04:55:21;;;;;;;0.40;0.40;;;-1.10;99.90;;;;;;5052304;28;20036;-74
2022/01/08 04:57:47;;;;;;;0.70;0.70;;;-1.10;99.90;;;;;;5052145;28;20033;-74
2022/01/08 05:00:14;;;;;;;0.50;0.50;;;-1.10;99.90;;;;;;5033849;28;20116;-75
2022/01/08 05:02:40;;;;;;;0.70;0.70;;;-1.00;99.90;;;;;;5034085;28;20025;-76
2022/01/08 05:05:07;;;;;;;0.45;0.45;;;-1.10;99.90;;;;;;5052669;28;20484;-75
2022/01/08 05:07:32;;;;;;;0.40;0.40;;;-1.10;99.90;;;;;;5051875;28;20059;-75
2022/01/08 05:09:58;;;;;;;0.40;0.40;;;-1.00;99.90;;;;;;5054621;28;20020;-75
2022/01/08 05:12:24;;;;;;;0.40;0.40;;;-1.00;99.90;;;;;;5055226;28;20511;-76
2022/01/08 05:14:50;;;;;;;0.40;0.40;;;-1.00;99.90;;;;;;5055613;28;20504;-75
2022/01/08 05:17:16;;;;;;;0.40;0.40;;;-0.90;99.90;;;;;;5037419;28;20443;-75
2022/01/08 05:19:49;;;;;;;0.50;0.50;;;-0.80;99.90;;;;;;5055395;28;20057;-75
2022/01/08 05:22:25;;;;;;;0.60;0.60;;;-0.70;99.90;;;;;;5053867;28;20111;-75
2022/01/08 05:24:51;;;;;;;0.75;0.50;;;-0.70;99.90;;;;;;5054254;28;20033;-75
2022/01/08 05:27:17;;;;;;;0.40;0.40;;;-0.60;99.90;;;;;;5055149;28;20025;-75
2022/01/08 05:29:45;;;;;;;0.47;0.47;;;-0.50;99.90;;;;;;5054380;28;20124;-74
2022/01/08 05:32:16;;;;;;;0.40;0.40;;;-0.60;99.90;;;;;;5037007;28;20045;-75
2022/01/08 05:34:50;;;;;;;1.33;0.57;;;-0.70;99.90;;;;;;5055037;28;20032;-75
2022/01/08 05:37:17;;;;;;;0.40;0.40;;;-0.70;99.90;;;;;;5054844;28;20025;-75
2022/01/08 05:39:46;;;;;;;0.30;0.30;;;-0.70;99.90;;;;;;5055011;28;20163;-75
2022/01/08 05:42:13;;;;;;;0.40;0.40;;;-0.40;99.90;;;;;;5055065;28;20066;-74
2022/01/08 05:44:38;;;;;;;0.40;0.40;;;-0.10;99.90;;;;;;5055466;28;20437;-75
2022/01/08 05:47:05;;;;;;;1.23;1.13;;;0.10;99.90;;;;;;5055009;28;20052;-75
2022/01/08 05:49:31;;;;;;;0.35;0.35;;;-0.10;99.90;;;;;;5055738;28;20048;-75
2022/01/08 05:51:56;;;;;;;0.40;0.40;;;-0.30;99.90;;;;;;5055241;28;20512;-76
2022/01/08 05:54:22;;;;;;;0.40;0.40;;;-0.30;99.90;;;;;;5053661;28;20496;-74
2022/01/08 05:56:50;;;;;;;0.40;0.40;;;-0.20;99.90;;;;;;5053274;28;20029;-75
2022/01/08 05:59:16;;;;;;;0.32;0.32;;;-0.10;99.90;;;;;;5053733;28;20017;-75
2022/01/08 06:01:41;;;;;;;1.42;1.30;;;0.20;99.90;;;;;;5054448;28;20087;-74
2022/01/08 06:04:07;;;;;;;0.30;0.30;;;0.40;99.90;;;;;;5054748;28;20108;-75
2022/01/08 06:06:33;;;;;;;3.47;0.63;;;0.40;99.90;;;;;;5054540;28;20427;-75
2022/01/08 06:08:59;;;;;;;0.40;0.40;;;0.30;99.90;;;;;;5053344;28;20049;-75
2022/01/08 06:11:24;;;;;;;0.30;0.30;;;0.40;99.90;;;;;;5054400;28;20024;-75
2022/01/08 06:13:50;;;;;;;0.40;0.40;;;0.40;99.90;;;;;;5052807;28;20031;-75
2022/01/08 06:16:16;;;;;;;0.47;0.47;;;0.40;99.90;;;;;;5053340;28;20107;-75
2022/01/08 06:18:42;;;;;;;0.68;0.68;;;0.40;99.90;;;;;;5055050;28;20029;-75
2022/01/08 06:21:07;;;;;;;0.40;0.40;;;0.50;99.90;;;;;;5054056;28;20089;-75
2022/01/08 06:23:33;;;;;;;0.50;0.50;;;0.50;99.90;;;;;;5054610;28;20027;-73
2022/01/08 06:25:59;;;;;;;0.50;0.50;;;0.50;99.90;;;;;;5054475;28;20017;-73
2022/01/08 06:28:26;;;;;;;0.55;0.55;;;0.40;99.90;;;;;;5053021;28;20052;-76
2022/01/08 06:30:53;;;;;;;0.40;0.40;;;0.30;99.90;;;;;;5054046;28;20099;-75
2022/01/08 06:33:20;;;;;;;0.40;0.40;;;0.20;99.90;;;;;;5054201;28;20380;-75
2022/01/08 06:35:45;;;;;;;0.40;0.40;;;0.10;99.90;;;;;;5052477;28;20029;-75
2022/01/08 06:38:11;;;;;;;0.40;0.40;;;0.10;99.90;;;;;;5055116;28;20027;-75
2022/01/08 06:40:38;;;;;;;0.43;0.43;;;0.10;99.90;;;;;;5054572;28;20035;-78
2022/01/08 06:43:03;;;;;;;0.35;0.35;;;0.20;99.90;;;;;;5054491;28;20102;-75
2022/01/08 06:45:29;;;;;;;0.40;0.40;;;0.30;99.90;;;;;;5054008;28;20060;-75
2022/01/08 06:47:55;;;;;;;0.50;0.50;;;0.30;99.90;;;;;;5052863;28;20025;-75
2022/01/08 06:50:21;;;;;;;0.45;0.45;;;0.30;99.90;;;;;;5054161;28;20376;-75
2022/01/08 06:52:46;;;;;;;0.50;0.50;;;0.30;99.90;;;;;;5053877;28;20099;-75
2022/01/08 06:55:12;;;;;;;0.40;0.40;;;0.40;99.90;;;;;;5053236;28;20025;-74
2022/01/08 06:57:38;;;;;;;0.50;0.50;;;0.40;99.90;;;;;;5035836;28;20040;-74
2022/01/08 07:00:05;;;;;;;0.40;0.40;;;0.30;99.90;;;;;;5052357;28;20033;-74
2022/01/08 07:02:31;;;;;;;0.30;0.30;;;0.50;99.90;;;;;;5053654;28;20025;-74
2022/01/08 07:04:57;;;;;;;0.40;0.40;;;0.50;99.90;;;;;;5053851;28;20121;-74
2022/01/08 07:07:23;;;;;;;1.00;1.00;;;0.40;99.90;;;;;;5052979;28;20104;-74
2022/01/08 07:09:48;;;;;;;0.40;0.40;;;0.50;99.90;;;;;;5053707;28;20025;-75
2022/01/08 07:12:14;;;;;;;0.32;0.32;;;0.50;99.90;;;;;;5052821;28;20029;-75
2022/01/08 07:14:40;;;;;;;0.50;0.50;;;0.50;99.90;;;;;;5053554;28;20025;-75
2022/01/08 07:17:06;;;;;;;0.32;0.32;;;0.50;99.90;;;;;;5053950;28;20395;-75
2022/01/08 07:19:32;;;;;;;0.45;0.45;;;0.50;99.90;;;;;;5052704;28;20033;-74
2022/01/08 07:21:59;;;;;;;0.40;0.40;;;0.40;99.90;;;;;;5053201;28;20025;-74
2022/01/08 07:24:25;;;;;;;0.40;0.40;;;0.20;99.90;;;;;;5051902;28;20025;-75
2022/01/08 07:26:51;;;;;;;0.65;0.65;;;0.20;99.90;;;;;;5052026;28;20029;-75
2022/01/08 07:29:17;;;;;;;0.70;0.70;;;0.30;99.90;;;;;;5052122;28;20116;-75
2022/01/08 07:31:42;;;;;;;0.40;0.40;;;0.40;99.90;;;;;;5052897;28;20495;-74
2022/01/08 07:34:08;;;;;;;0.35;0.35;;;0.50;99.90;;;;;;5052990;28;20385;-75
2022/01/08 07:36:34;;;;;;;0.88;0.80;;;0.50;99.90;;;;;;5052988;28;20467;-74
2022/01/08 07:38:59;;;;;;;0.45;0.43;;;0.40;99.90;;;;;;5053534;28;20025;-75
2022/01/08 07:41:25;;;;;;;0.35;0.35;;;0.40;99.90;;;;;;5052808;28;20032;-75
2022/01/08 07:43:51;;;;;;;1.50;0.98;;;0.30;99.90;;;;;;5052627;28;20028;-75
2022/01/08 07:46:17;;;;;;;1.05;0.65;;;0.40;99.90;;;;;;5051202;28;20079;-75
2022/01/08 07:48:43;;;;;;;0.57;0.57;;;0.30;99.90;;;;;;5052835;28;20072;-75
2022/01/08 07:51:09;;;;;;;0.60;0.60;;;0.30;99.90;;;;;;5051143;28;20025;-75
2022/01/08 07:53:35;;;;;;;6.03;1.35;;;0.30;99.90;;;;;;5052811;28;20021;-75
2022/01/08 07:56:01;;;;;;;1.17;0.68;;;0.20;99.90;;;;;;5051010;28;20032;-75
2022/01/08 07:58:26;;;;;;;0.50;0.50;;;0.20;99.90;;;;;;5052540;28;20043;-75
2022/01/08 08:00:53;;;;;;;0.50;0.50;;;0.10;99.90;;;;;;5034711;28;20100;-75
2022/01/08 08:03:20;;;;;;;0.55;0.55;;;0.10;99.90;;;;;;5051448;28;20031;-76
2022/01/08 08:05:46;;;;;;;3.03;1.13;;;0.30;99.90;;;;;;5051424;28;20378;-75
2022/01/08 08:08:16;;;;;;;0.52;0.52;;;0.40;99.90;;;;;;5051376;28;20037;-76
2022/01/08 08:10:43;;;;;;;1.83;1.73;;;0.40;99.90;;;;;;5051405;28;20179;-75
2022/01/08 08:13:08;;;;;;;2.75;1.20;;;0.60;99.90;;;;;;5052681;28;20032;-76
2022/01/08 08:15:34;;;;;;;0.47;0.47;;;0.60;99.90;;;;;;5051377;28;20337;-75
2022/01/08 08:18:00;;;;;;;1.63;1.50;;;0.70;99.90;;;;;;5052868;28;20079;-76
2022/01/08 08:20:26;;;;;;;0.60;0.60;;;0.70;99.90;;;;;;5051687;28;20036;-75
2022/01/08 08:22:51;;;;;;;0.63;0.63;;;0.70;99.90;;;;;;5052420;28;20392;-75
2022/01/08 08:25:17;;;;;;;0.55;0.55;;;0.80;99.90;;;;;;5051714;28;20057;-75
2022/01/08 08:27:43;;;;;;;0.45;0.45;;;0.90;99.90;;;;;;5052595;28;20025;-74
2022/01/08 08:30:10;;;;;;;0.80;0.80;;;0.90;99.90;;;;;;5052673;28;20044;-75
2022/01/08 08:32:37;;;;;;;0.95;0.60;;;1.00;99.90;;;;;;5051730;28;20391;-77
2022/01/08 08:35:03;;;;;;;0.60;0.60;;;1.00;99.90;;;;;;5059629;28;20021;-75
2022/01/08 08:37:29;;;;;;;0.68;0.68;;;1.10;99.90;;;;;;5059832;28;20032;-75
2022/01/08 08:39:55;;;;;;;9.30;0.90;;;1.20;99.90;;;;;;5071615;28;20502;-75
2022/01/08 08:42:21;;;;;;;0.93;0.70;;;1.20;99.90;;;;;;5073976;28;20432;-75
2022/01/08 08:44:46;;;;;;;0.40;0.40;;;1.10;99.90;;;;;;5075925;28;20079;-76
2022/01/08 08:47:12;;;;;;;1.15;0.60;;;1.10;99.90;;;;;;5047114;28;20032;-75
2022/01/08 08:49:38;;;;;;;0.63;0.63;;;1.10;99.90;;;;;;5056314;28;20021;-76
2022/01/08 08:52:04;;;;;;;1.90;0.52;;;1.10;99.90;;;;;;5038184;28;20040;-75
2022/01/08 08:54:30;;;;;;;0.32;0.32;;;1.10;99.90;;;;;;5055307;28;20078;-76
2022/01/08 08:56:56;;;;;;;1.13;0.52;;;1.10;99.90;;;;;;5062027;22;20041;-74
2022/01/08 08:59:23;;;;;;;0.40;0.40;;;1.00;99.90;;;;;;5033177;28;20101;-74
2022/01/08 09:01:50;;;;;;;0.70;0.70;;;1.10;99.90;;;;;;5034746;28;20068;-74
2022/01/08 09:04:15;;;;;;;1.13;0.70;;;1.10;99.90;;;;;;5033996;28;20055;-73
2022/01/08 09:06:41;;;;;;;0.60;0.60;;;1.10;99.90;;;;;;5035488;28;20053;-74
2022/01/08 09:09:07;;;;;;;0.30;0.30;;;1.00;99.90;;;;;;5043694;28;20123;-73
2022/01/08 09:11:34;;;;;;;0.30;0.30;;;1.10;99.90;;;;;;5037896;28;20026;-74
2022/01/08 09:14:00;;;;;;;0.50;0.50;;;1.10;99.90;;;;;;5053122;28;20017;-74
2022/01/08 09:16:27;;;;;;;0.50;0.50;;;1.10;99.90;;;;;;5050302;28;20346;-74
2022/01/08 09:18:53;;;;;;;0.30;0.30;;;1.10;99.90;;;;;;5034870;28;20041;-73
2022/01/08 09:21:19;;;;;;;1.63;0.43;;;1.10;99.90;;;;;;5034397;28;20076;-73
2022/01/08 09:23:45;;;;;;;1.10;0.50;;;1.20;99.90;;;;;;5033299;28;20109;-73
2022/01/08 09:26:11;;;;;;;1.13;0.93;;;1.20;99.90;;;;;;5047424;28;20082;-73
2022/01/08 09:28:37;;;;;;;0.40;0.40;;;1.20;99.90;;;;;;5053159;28;20068;-73
2022/01/08 09:31:03;;;;;;;0.63;0.63;;;1.30;99.90;;;;;;5054701;28;20096;-74
2022/01/08 09:33:30;;;;;;;2.63;0.65;;;1.30;99.90;;;;;;5053235;28;20425;-73
2022/01/08 09:35:56;;;;;;;0.25;0.25;;;1.40;99.90;;;;;;5052978;28;20485;-74
2022/01/08 09:38:22;;;;;;;0.60;0.60;;;1.50;99.90;;;;;;5035031;28;20021;-74
2022/01/08 09:40:48;;;;;;;0.50;0.50;;;1.60;99.90;;;;;;5034940;28;20025;-74
2022/01/08 09:43:15;;;;;;;2.28;1.48;;;1.60;99.90;;;;;;5053006;28;20086;-73
2022/01/08 09:45:41;;;;;;;0.38;0.38;;;1.60;99.90;;;;;;5052642;28;20032;-73
2022/01/08 09:48:06;;;;;;;0.57;0.57;;;1.50;99.90;;;;;;5052734;28;20385;-73
2022/01/08 09:50:32;;;;;;;1.05;0.95;;;1.60;99.90;;;;;;5052611;28;20029;-73
2022/01/08 09:52:58;;;;;;;0.70;0.70;;;1.60;99.90;;;;;;5053478;28;20448;-73
2022/01/08 09:55:26;;;;;;;0.30;0.30;;;1.50;99.90;;;;;;5053907;28;20132;-73
2022/01/08 09:57:53;;;;;;;0.32;0.32;;;1.60;99.90;;;;;;5052337;28;20044;-73
2022/01/08 10:00:19;;;;;;;0.50;0.50;;;1.60;99.90;;;;;;5052497;28;20129;-74
2022/01/08 10:02:45;;;;;;;0.60;0.60;;;1.50;99.90;;;;;;5052717;28;20021;-73
2022/01/08 10:05:17;;;;;;;0.40;0.40;;;1.30;99.90;;;;;;5052436;28;20471;-73
2022/01/08 10:07:56;;;;;;;0.30;0.30;;;1.10;99.90;;;;;;5053633;28;20032;-74
2022/01/08 10:10:21;;;;;;;0.30;0.30;;;0.90;99.90;;;;;;5052214;28;20025;-74
2022/01/08 10:13:00;;;;;;;0.45;0.45;;;0.90;99.90;;;;;;5052257;28;20047;-74
2022/01/08 10:18:33;;;;;;;0.38;0.38;;;0.90;99.90;;;;;;5033247;28;20021;-74
2022/01/08 10:21:21;;;;;;;1.00;0.80;;;1.00;99.90;;;;;;5012021;28;20022;-74
2022/01/08 10:24:03;;;;;;;0.32;0.32;;;1.10;99.90;;;;;;5031897;28;20025;-74
2022/01/08 10:26:34;;;;;;;0.88;0.60;;;1.20;99.90;;;;;;5031838;28;20018;-74
2022/01/08 10:29:03;;;;;;;1.13;0.65;;;1.30;99.90;;;;;;5033247;28;20022;-75
2022/01/08 10:31:40;;;;;;;0.93;0.93;;;1.20;99.90;;;;;;5031288;28;20033;-74
2022/01/08 10:34:21;;;;;;;0.45;0.45;;;1.40;99.90;;;;;;5033225;28;20029;-73
2022/01/08 10:36:56;;;;;;;0.30;0.30;;;1.80;99.90;;;;;;5031734;28;20029;-74
2022/01/08 10:39:29;;;;;;;0.75;0.75;;;1.80;99.90;;;;;;5033780;28;20503;-74
2022/01/08 10:41:57;;;;;;;0.40;0.40;;;1.70;99.90;;;;;;5042575;28;20021;-74
2022/01/08 10:44:31;;;;;;;1.65;0.50;;;1.60;99.90;;;;;;5051749;28;20025;-74
2022/01/08 10:47:07;;;;;;;0.70;0.70;;;1.60;99.90;;;;;;5051388;28;20017;-74
2022/01/08 10:49:35;;;;;;;0.38;0.38;;;1.70;99.90;;;;;;5051509;28;20029;-73
2022/01/08 10:52:09;;;;;;;13.65;1.27;;;1.60;99.90;;;;;;5051272;28;20028;-73
2022/01/08 10:54:41;;;;;;;0.52;0.52;;;1.40;99.90;;;;;;5051479;28;20100;-74
2022/01/08 10:57:08;;;;;;;0.68;0.68;;;1.40;99.90;;;;;;5052666;28;20106;-74
2022/01/08 10:59:36;;;;;;;0.40;0.40;;;1.30;99.90;;;;;;5034586;28;20036;-74
2022/01/08 11:02:06;;;;;;;0.43;0.43;;;1.60;99.90;;;;;;5052484;28;20419;-75
2022/01/08 11:04:39;;;;;;;0.65;0.50;;;1.90;99.90;;;;;;5051792;28;20051;-77
2022/01/08 11:07:09;;;;;;;5.47;1.00;;;2.20;99.90;;;;;;5052117;28;20021;-74
2022/01/08 11:09:37;;;;;;;0.32;0.32;;;2.40;99.90;;;;;;5052323;28;20029;-74
2022/01/08 11:12:05;;;;;;;0.80;0.80;;;2.60;99.90;;;;;;5051486;28;20079;-75
2022/01/08 11:17:29;;;;;;;0.75;0.50;;;3.10;99.90;;;;;;5051891;28;20021;-74
2022/01/08 11:19:58;;;;;;;0.30;0.30;;;2.70;99.90;;;;;;5051008;28;20481;-74
2022/01/08 11:22:28;;;;;;;2.15;1.08;;;2.40;99.90;;;;;;5050543;28;20395;-74
2022/01/08 11:25:27;;;;;;;0.73;0.73;;;2.20;99.90;;;;;;5051071;28;20021;-74
2022/01/08 11:28:14;;;;;;;0.30;0.30;;;1.90;99.90;;;;;;5050922;28;20029;-74
2022/01/08 11:31:00;;;;;;;0.25;0.25;;;2.10;99.90;;;;;;5030396;28;20025;-74
2022/01/08 11:33:30;;;;;;;1.15;0.82;;;3.30;99.90;;;;;;5030856;28;20477;-74
2022/01/08 11:35:57;;;;;;;0.20;0.20;;;3.20;99.90;;;;;;5030934;28;20488;-74
2022/01/08 11:38:26;;;;;;;0.50;0.50;;;2.90;99.90;;;;;;5041193;28;20052;-74
2022/01/08 11:40:54;;;;;;;1.23;0.85;;;3.40;99.90;;;;;;5032814;28;20025;-74
2022/01/08 11:43:24;;;;;;;0.60;0.60;;;3.30;99.90;;;;;;5051850;28;20021;-75
2022/01/08 11:45:58;;;;;;;0.93;0.63;;;3.20;99.90;;;;;;5044325;28;20025;-74
2022/01/08 11:48:29;;;;;;;0.63;0.55;;;2.90;99.90;;;;;;5031990;28;20393;-75
2022/01/08 11:50:57;;;;;;;0.65;0.65;;;2.90;99.90;;;;;;5030656;28;20026;-74
2022/01/08 11:53:28;;;;;;;0.40;0.40;;;2.70;99.90;;;;;;5014194;28;20033;-74
2022/01/08 11:55:56;;;;;;;2.63;1.08;;;2.60;99.90;;;;;;5011819;28;20045;-75
2022/01/08 11:58:36;;;;;;;0.50;0.50;;;2.40;99.90;;;;;;5012073;28;20060;-74
2022/01/08 12:01:06;;;;;;;0.68;0.68;;;2.20;99.90;;;;;;5010656;28;20144;-75
2022/01/08 12:03:41;;;;;;;0.70;0.70;;;2.20;99.90;;;;;;5022314;28;20052;-74
2022/01/08 12:06:19;;;;;;;1.30;0.95;;;1.90;99.90;;;;;;5030373;28;20021;-74
2022/01/08 12:09:27;;;;;;;0.68;0.68;;;1.90;99.90;;;;;;5014009;28;20022;-74
2022/01/08 12:12:04;;;;;;;0.30;0.30;;;1.90;99.90;;;;;;5042494;28;20024;-73
2022/01/08 12:14:45;;;;;;;0.30;0.30;;;2.00;99.90;;;;;;5050364;28;20033;-74
2022/01/08 12:17:21;;;;;;;1.35;1.25;;;1.90;99.90;;;;;;5054156;28;20017;-73
2022/01/08 12:19:56;;;;;;;0.32;0.32;;;1.80;99.90;;;;;;5054585;28;20375;-74
2022/01/08 12:22:22;;;;;;;1.40;0.90;;;1.80;99.90;;;;;;5054208;28;20021;-74
2022/01/08 12:24:52;;;;;;;1.73;1.63;;;1.90;99.90;;;;;;5055491;28;20032;-75
2022/01/08 12:27:41;;;;;;;0.50;0.50;;;1.90;99.90;;;;;;5053973;28;20033;-74
2022/01/08 12:30:31;;;;;;;0.30;0.30;;;1.90;99.90;;;;;;5054268;28;20028;-74
2022/01/08 12:33:19;;;;;;;0.43;0.43;;;2.00;99.90;;;;;;5043765;28;20057;-74
2022/01/08 12:35:45;;;;;;;0.20;0.20;;;2.10;99.90;;;;;;5055218;28;20035;-73
2022/01/08 12:38:27;;;;;;;0.70;0.70;;;2.10;99.90;;;;;;5037871;28;20049;-73
2022/01/08 12:40:53;;;;;;;0.70;0.70;;;2.20;99.90;;;;;;5033965;28;20077;-73
2022/01/08 12:43:23;;;;;;;0.75;0.75;;;2.20;99.90;;;;;;5034240;28;20022;-73
2022/01/08 12:45:50;;;;;;;1.50;0.80;;;2.30;99.90;;;;;;5042867;28;20017;-73
2022/01/08 12:48:20;;;;;;;0.75;0.75;;;2.30;99.90;;;;;;5036998;28;20546;-73
2022/01/08 12:50:46;;;;;;;0.70;0.70;;;2.40;99.90;;;;;;5053977;28;20021;-73
2022/01/08 12:53:14;;;;;;;1.42;0.75;;;2.20;99.90;;;;;;5054977;28;20040;-73
2022/01/08 12:56:02;;;;;;;0.73;0.65;;;2.30;99.90;;;;;;5054717;28;20025;-73
2022/01/08 12:58:44;;;;;;;0.30;0.30;;;2.10;99.90;;;;;;5054635;28;20041;-73
2022/01/08 13:01:16;;;;;;;0.68;0.68;;;2.20;99.90;;;;;;5054519;28;20025;-73
2022/01/08 13:03:43;;;;;;;3.05;0.80;;;2.20;99.90;;;;;;5053637;28;20159;-73
2022/01/08 13:06:12;;;;;;;0.30;0.30;;;2.10;99.90;;;;;;5036591;28;20043;-73
2022/01/08 13:08:40;;;;;;;0.40;0.40;;;2.10;99.90;;;;;;5053332;28;20021;-73
2022/01/08 13:11:09;;;;;;;1.30;1.20;;;2.30;99.90;;;;;;5054525;28;20029;-73
2022/01/08 13:13:40;;;;;;;0.32;0.32;;;2.20;99.90;;;;;;5054653;28;20025;-73
2022/01/08 13:16:12;;;;;;;1.48;1.38;;;2.30;99.90;;;;;;5054596;28;20096;-73
2022/01/08 13:18:39;;;;;;;0.50;0.50;;;2.20;99.90;;;;;;5054507;28;20089;-73
2022/01/08 13:21:06;;;;;;;0.63;0.63;;;2.20;99.90;;;;;;5054243;28;20025;-72
2022/01/08 13:23:44;;;;;;;1.00;1.00;;;2.20;99.90;;;;;;5054414;28;20115;-73
2022/01/08 13:26:10;;;;;;;1.30;0.60;;;2.10;99.90;;;;;;5052834;28;20388;-73
2022/01/08 13:28:36;;;;;;;0.77;0.77;;;2.10;99.90;;;;;;5052510;28;20071;-73
2022/01/08 13:31:01;;;;;;;0.57;0.50;;;2.10;99.90;;;;;;5051940;28;20511;-73